Vincenzo De Angelis

Recruteur - Lazio
9 Juil 2028
Dimanche
Processus

Personnalité

Adaptabilité (6) Ambition (11) Controverse (4) Loyauté (15) Pression (4) Professionnalisme (1) Sportivité (19) Tempérament (11)

Profil

Style d'entraînement Démocratique
Diplôme Continental A
Détermination 6
Gestion des joueurs 13
Motivation 11
Discipline 6
Satisfaction professionnelle
78%
Fatigue
0%
Rôle Recruteur
Salaire 24.3K p/s
Contrat 14.03.2029

Performance

Comportement Bon
Efficacité de l'entraînement
31%
Développement des joueurs
60%
Prévention des blessures
30%
Mise en place tactique
40%

Événements récents

A participé à une réunion de recrutement maintenant
A recommandé une cible de transfert maintenant
A participé à une réunion de recrutement 7j
A recommandé une cible de transfert 7j
A recommandé une cible de transfert 7j
A recommandé une cible de transfert 7j
A présenté un dossier au conseil 7j
A présenté un dossier au conseil 14j

Suivi en cours

84
Joueur Club Statut Capacité Confiance Observé Dernière observation Dernier vote
Sebastiano Esposito Cagliari Perdu 139 / 140 72% 1 19.06.2028 Approuver
Ebenezer Akinsanmiro Inter Actif 132 / 135 72% 1 12.06.2028 Approuver
Matteo Cancellieri Cremonese Perdu 152 / 141 72% 1 05.06.2028 -
Christian Pulisic AC Milan Actif 157 / 166 72% 1 02.01.2028 Approuver
Bohdan Budko AZ Actif 111 / 128 40% 1 31.12.2027 -
Daniel Banjaqui Benfica Actif 122 / 126 40% 1 31.12.2027 -
Adam Aznou Everton Actif 122 / 138 40% 1 31.12.2027 -
Fodé Sylla Sion Actif 110 / 120 40% 1 23.08.2027 -
Malick Yalcouyé Brighton Actif 130 / 135 40% 1 23.08.2027 -
Jayden Addai Bari Actif 124 / 133 40% 1 14.06.2027 -
Antoine Hainaut Venezia Actif 125 / 122 72% 1 07.06.2027 Approuver
Josh King Newcastle United Actif 137 / 149 40% 5 31.05.2027 -
Eliás Montiel Borussia Dortmund Actif 135 / 142 40% 1 31.05.2027 -
Bade Aluko Leicester City Actif 120 / 116 40% 3 30.05.2027 -
Mateus Mané Burnley Actif 131 / 142 40% 1 30.05.2027 -
Riyad Idrissi Cagliari Actif 122 / 135 40% 4 29.05.2027 -
Samuele di Benedetto Twente Actif 108 / 124 40% 1 29.05.2027 -
Nejc Viher NK Maribor Actif 112 / 122 40% 2 27.05.2027 -
Raoul Bellanova Atalanta Actif 156 / 152 40% 12 26.05.2027 -
Billy Gilmour Napoli Actif 147 / 150 40% 4 26.05.2027 -
Curtis Jones Inter Actif 150 / 153 40% 11 25.05.2027 -
Rodrigo Mora AC Milan Actif 140 / 150 40% 1 25.05.2027 -
Diego Moreira AC Milan Actif 144 / 142 40% 8 24.05.2027 -
Borja Sainz Udinese Actif 144 / 143 40% 4 24.05.2027 -
Ousseynou Seck Randers Actif 104 / 130 40% 2 23.05.2027 -
Alexis Saelemaekers AC Milan Perdu 155 / 154 40% 6 22.05.2027 -
Romano Schmid Napoli Actif 137 / 140 40% 1 22.05.2027 -
Nicolò Zaniolo Udinese Actif 139 / 145 40% 5 19.05.2027 -
Nicolò Cambiaghi Bologna Actif 145 / 137 40% 2 19.05.2027 -
Giacomo Raspadori Atalanta Actif 146 / 149 40% 5 18.05.2027 -
Kobbie Mainoo Manchester United Actif 158 / 150 40% 8 16.05.2027 -
Roger Fernandes Galatasaray Actif 140 / 129 40% 1 16.05.2027 -
Khéphren Thuram Juventus Actif 155 / 160 40% 10 12.05.2027 -
Pierre Kalulu Juventus Actif 150 / 161 40% 6 12.05.2027 -
Andrea Cambiaso Juventus Actif 157 / 151 40% 9 10.05.2027 -
Dmitry Pestryakov Krasnodar Actif 107 / 130 40% 3 09.05.2027 -
Franz-Ethan Meichtry Genoa Actif 129 / 125 40% 2 08.05.2027 -
Victor Hernandez Santa Fe Actif 119 / 124 40% 3 08.05.2027 -
Ezra Mayers West Ham United Actif 115 / 124 40% 2 07.05.2027 -
Enzo Koffi Olympique de Marseille Actif 104 / 108 40% 2 05.05.2027 -
Bence Dárdai VfL Wolfsburg Actif 132 / 133 40% 2 05.05.2027 -
Sascha Britschgi AC Milan Actif 117 / 121 40% 3 28.04.2027 -
Sindre Walle Egeli Udinese Actif 134 / 130 40% 2 28.04.2027 -
Malo Gusto Chelsea Actif 155 / 148 40% 2 22.04.2027 -
Mathys Tel Tottenham Actif 150 / 147 40% 2 22.04.2027 -
Luka Vušković Tottenham Actif 147 / 145 40% 3 21.04.2027 -
Lucas Agazzi Villarreal Actif 126 / 124 40% 2 21.04.2027 -
Jonathan Pérez Cruz Azul Actif 115 / 113 40% 1 21.04.2027 -
Matteo Cichella Frosinone Actif 122 / 129 40% 4 15.04.2027 -
Savinho Tottenham Actif 154 / 162 40% 3 14.04.2027 -
Celías Ingenthron Platense Actif 103 / 118 40% 1 07.04.2027 -
Halam Loboa Sevilla Actif 124 / 128 40% 1 07.04.2027 -
Kirill Glebov CSKA Moscow Actif 137 / 140 40% 2 04.04.2027 -
Lucas Da Cunha Como Actif 137 / 150 40% 4 03.04.2027 -
Jakub Suslov FK Senica Actif 100 / 115 40% 1 30.03.2027 -
Eivind Helland AC Milan Actif 123 / 135 40% 2 28.03.2027 -
Valentin Atangana Al-Ahli Actif 121 / 125 40% 3 27.03.2027 -
Edon Zhegrova Juventus Actif 145 / 141 40% 2 16.03.2027 -
Gonçalo Oliveira Benfica Actif 103 / 116 40% 1 13.03.2027 -
Crysencio Summerville Al-Hilal Actif 131 / 143 40% 2 25.02.2027 -
Lewis Ferguson Bologna Actif 136 / 141 40% 1 17.02.2027 -
Cemran Dansin Orlando Pirates Actif 109 / 126 40% 1 08.02.2027 -
Odilon Kossounou Atalanta Actif 137 / 143 40% 7 31.12.2026 -
Yann Aurel Bisseck Inter Actif 152 / 158 40% 2 31.12.2026 -
Giorgio Scalvini Atalanta Actif 141 / 148 40% 8 30.12.2026 -
Carlos Augusto Inter Actif 141 / 140 40% 6 28.12.2026 -
Alessandro Bastoni Inter Actif 162 / 171 40% 5 17.12.2026 -
Isak Hien Atalanta Actif 150 / 144 40% 1 14.12.2026 -
Oumar Solet Udinese Actif 149 / 150 40% 3 04.12.2026 -
Trevoh Chalobah Como Actif 147 / 160 40% 2 04.12.2026 -
Dodo Fiorentina Actif 146 / 145 40% 3 02.11.2026 -
Pedro Porro Tottenham Actif 139 / 151 40% 3 27.10.2026 -
Moisés Caicedo Chelsea Actif 166 / 172 40% 2 27.10.2026 -
Conor Gallagher Tottenham Actif 153 / 157 40% 1 27.10.2026 -
Jeremie Frimpong Liverpool Actif 163 / 162 40% 1 26.10.2026 -
Yehor Yarmoliuk Brentford Actif 152 / 150 40% 1 24.10.2026 -
Jarrad Branthwaite Everton Actif 153 / 159 40% 1 21.10.2026 -
Levi Colwill Chelsea Actif 158 / 165 40% 1 20.10.2026 -
Nico González Newcastle United Actif 161 / 158 40% 1 20.10.2026 -
Alex Scott Bournemouth Actif 145 / 154 40% 1 15.10.2026 -
Nico O'Reilly Manchester City Actif 155 / 159 40% 1 11.10.2026 -
Alexis Mac Allister Liverpool Actif 161 / 166 40% 1 05.10.2026 -
Ismaïla Sarr Crystal Palace Actif 145 / 147 40% 1 09.09.2026 -
Jérémy Doku Manchester City Actif 163 / 157 40% 1 01.08.2026 -